Aérodrome :
LOGIN :

S'inscrire | Disclaimer

   EN    FR    IT 

 










Légende :    VFR   VFR Marginal   IFR   IFR Intensif   IFR Très Intensif
Visi : 
Plafond : 
>= 8 km
>= 3000ft
5 à 8 km
1000 à 3000 ft
1500m à 5 km
500 à 1000 ft
800 à 1500m
200 à 500 ft
< 800m
< 200 ft
Symboles :   Orages  Brouillard  Fortes neiges  Fortes précipitations  Vent > 20 kt
SIGMETs :   Divers  Orages  Givrage  Turbulence  Onde Orograph.  Cendres Volcan.







- Altitude de l'aérodrome : 242 ft
- Code IATA : DUB


EIDW - Dublin

DERNIER METAR :
  • 211300Z 25007KT 200V300 9999 FEW016 BKN018 BKN022 13/08 Q1031 NOSIG

METARs EXPIRÉS :
  • 211230Z 22007KT 180V260 9999 FEW016 BKN018 BKN022 12/08 Q1031 NOSIG
  • 211200Z 23006KT 200V270 9999 FEW016 BKN018 BKN022 12/08 Q1031 NOSIG
  • 211130Z 23007KT 180V280 9999 SCT017 BKN020 BKN026 12/08 Q1032 NOSIG
  • 211100Z 24005KT 180V280 9999 SCT017 BKN020 BKN026 12/08 Q1032 NOSIG
  • 211030Z 22007KT 190V270 9999 FEW017 BKN020 BKN026 12/08 Q1032 NOSIG

TAF TAF EIDW
Valide du 21 à 12h jusqu'au 22 à 12h UTC


211100Z 2112/2212 24009KT 9999 SCT015 BKN025
BECMG 2113/2116 21010KT
PROB30
TEMPO 2113/2116 16008KT
BECMG 2202/2205 21015KT
TEMPO 2205/2212 21016G26KT
TEMPO 2210/2212 -RA BKN012
Pas de NOTAMs connus pour ce terrain.



MET'MAP, la Météo Aéronautique d'un coup d'oeil ! - Copyright ORBIFLY Décembre 2007 - Disclaimer

ORBIFLY MET'MAP TEAM :

Programmation & Développement : Alexandra Zaïnal
Conception & Développement : Baudouin d'Aumeries
Co-Programmation & Développement : Marc-Olivier Méhu
Soutien technique & logistique : Manuel Goepfert

Contact : metmap@orbifly.com




SOURCES & CREDITS :

   NOAA